Pagrindinis puslapis
METAR-TAF:

METAR-TAF

Oro uostai :

Mardin, Turkija

platuma: 37-13-58N, ilguma: 40-38-26E, Aukštis: 527 m

Dabartinis oras

Ataskaita buvo paskelbta 1 valandą ir 6 minutes, ne 11:50 UTC
Vėjas 4 kt iš Rytų, svyruoja nuo Šiaurės Rytų ir Pietų/Pietryčių
Temperatūra 28°C
Drėgmė 37%
Slėgis 1011 hPa
Matomumas 10 km arba daugiau
nėra debesų žemiau 1500 m ir nėra kamuolinių lietaus debesų

METAR: LTCR 181150Z 08004KT 050V150 CAVOK 28/12 Q1011

Laikas: 15:56 (12:56 UTC)

Prognozė

Ataskaita buvo paskelbta 2 valandos ir 16 minutes, ne 10:40 UTC
Prognozė galioja nuo 18 metu 12 UTC su 18 metu 21 UTC
Vėjas 7 kt iš Rytų
Matomumas 10 km arba daugiau
nėra debesų žemiau 1500 m ir nėra kamuolinių lietaus debesų

TAF: LTCR 181040Z 1812/1821 10007KT CAVOK

Orai ataskaitas ir orų prognozės (METAR, TAF).

turimą stotys yra geltonos ir raudonos taškus žemėlapyje.

Perkelti pele per norėdami pamatyti stoties vardą.

Tada spustelėkite, norėdami matyti oro stebėjimo ir prognozės.

Norėdami pakeisti žemėlapį: spustelėkite ant žalios mygtukų su juodo kryžiaus žemyn,; žalią mygtuką su brūkšneliu, jei norite nutolinti; arba žalių rodyklių gretimoms žemėlapius.


METAR-TAF: